createdAt,value
2019-04-30T00:00:18.268Z,0.00
2019-04-30T00:01:18.891Z,0.00
2019-04-30T00:02:16.799Z,0.00
2019-04-30T00:03:19.521Z,0.00
2019-04-30T00:04:16.841Z,0.00
2019-04-30T00:05:18.724Z,0.00
2019-04-30T00:06:16.878Z,0.00
2019-04-30T00:07:19.103Z,0.00
2019-04-30T00:08:16.905Z,0.00
2019-04-30T00:09:18.906Z,0.00
2019-04-30T00:10:16.946Z,0.00
2019-04-30T00:11:19.490Z,0.00
2019-04-30T00:12:16.979Z,0.00
2019-04-30T00:13:20.669Z,0.00
2019-04-30T00:14:17.014Z,0.00
2019-04-30T00:15:19.422Z,0.00
2019-04-30T00:16:17.048Z,0.00
2019-04-30T00:17:19.599Z,0.00
2019-04-30T00:18:17.085Z,0.00
2019-04-30T00:19:19.731Z,0.00
2019-04-30T00:20:17.750Z,0.00
2019-04-30T00:21:18.726Z,0.00
2019-04-30T00:22:17.159Z,0.00
2019-04-30T00:23:18.117Z,0.00
2019-04-30T00:24:17.196Z,0.00
2019-04-30T00:25:19.708Z,0.00
2019-04-30T00:26:17.383Z,0.00
2019-04-30T00:27:20.988Z,0.00
2019-04-30T00:28:17.264Z,0.00
2019-04-30T00:29:26.402Z,0.00
2019-04-30T00:30:17.308Z,0.00
2019-04-30T00:31:23.455Z,0.00
2019-04-30T00:32:17.335Z,0.00
2019-04-30T00:33:22.173Z,0.00
2019-04-30T00:34:17.372Z,0.00
2019-04-30T00:35:19.552Z,0.00
2019-04-30T00:36:17.489Z,0.00
2019-04-30T00:37:18.879Z,0.00
2019-04-30T00:38:17.438Z,0.00
2019-04-30T00:39:17.458Z,0.00
2019-04-30T00:40:17.474Z,0.00
2019-04-30T00:41:17.494Z,0.00
2019-04-30T00:42:23.915Z,0.00
2019-04-30T00:43:17.533Z,0.00
2019-04-30T00:44:19.830Z,0.00
2019-04-30T00:45:17.567Z,0.00
2019-04-30T00:47:17.601Z,0.00
2019-04-30T00:48:26.929Z,0.00
2019-04-30T00:49:23.008Z,0.00
2019-04-30T00:50:17.657Z,0.00
2019-04-30T00:51:21.230Z,0.00
2019-04-30T00:52:17.688Z,0.00
2019-04-30T00:53:17.705Z,0.00
2019-04-30T00:54:17.792Z,0.00
2019-04-30T00:55:17.737Z,0.00
2019-04-30T00:56:19.789Z,0.00
2019-04-30T00:57:17.779Z,0.00
2019-04-30T00:58:24.977Z,0.00
2019-04-30T00:59:17.813Z,0.00
2019-04-30T01:00:25.202Z,0.00
2019-04-30T01:01:17.847Z,0.00
2019-04-30T01:02:27.814Z,0.00
2019-04-30T01:03:17.880Z,0.00
2019-04-30T01:04:19.491Z,0.00
2019-04-30T01:05:17.917Z,0.00
2019-04-30T01:06:26.741Z,0.00
2019-04-30T01:07:17.954Z,0.00
2019-04-30T01:08:21.148Z,0.00
2019-04-30T01:09:17.988Z,0.00
2019-04-30T01:10:19.640Z,0.00
2019-04-30T01:11:18.019Z,0.00
2019-04-30T01:12:27.683Z,0.00
2019-04-30T01:13:19.223Z,0.00
2019-04-30T01:14:18.879Z,0.00
2019-04-30T01:15:19.058Z,0.00
2019-04-30T01:16:19.542Z,0.00
2019-04-30T01:17:18.899Z,0.00
2019-04-30T01:18:19.295Z,0.00
2019-04-30T01:19:29.504Z,0.00
2019-04-30T01:20:19.368Z,0.00
2019-04-30T01:21:18.568Z,0.00
2019-04-30T01:22:21.231Z,0.00
2019-04-30T01:23:19.478Z,0.00
2019-04-30T01:24:19.041Z,0.00
2019-04-30T01:25:19.000Z,0.00
2019-04-30T01:26:18.752Z,0.00
2019-04-30T01:27:18.780Z,0.00
2019-04-30T01:28:23.194Z,0.00
2019-04-30T01:29:19.263Z,0.00
2019-04-30T01:30:22.575Z,0.00
2019-04-30T01:31:18.753Z,0.00
2019-04-30T01:32:20.959Z,0.00
2019-04-30T01:33:19.183Z,0.00
2019-04-30T01:34:19.594Z,0.00
2019-04-30T01:35:19.062Z,0.00
2019-04-30T01:36:19.267Z,0.00
2019-04-30T01:37:20.288Z,0.00
2019-04-30T01:38:18.911Z,0.00
2019-04-30T01:39:19.510Z,0.00
2019-04-30T01:40:18.980Z,0.00
2019-04-30T01:41:20.279Z,0.00
2019-04-30T01:42:18.647Z,0.00
2019-04-30T01:43:23.220Z,0.00
2019-04-30T01:44:19.504Z,0.00
2019-04-30T01:45:18.868Z,0.00
2019-04-30T01:46:18.963Z,0.00
2019-04-30T01:47:21.514Z,0.00
2019-04-30T01:48:19.386Z,0.00
2019-04-30T01:49:20.257Z,0.00
2019-04-30T01:50:19.419Z,0.00
2019-04-30T01:51:21.764Z,0.00
2019-04-30T01:52:19.350Z,0.00
2019-04-30T01:53:18.759Z,0.00
2019-04-30T01:54:23.975Z,0.00
2019-04-30T01:55:19.697Z,0.00
2019-04-30T01:56:19.181Z,0.00
2019-04-30T01:57:19.321Z,0.00
2019-04-30T01:58:19.443Z,0.00
2019-04-30T01:59:19.091Z,0.00
2019-04-30T02:00:19.534Z,0.00
2019-04-30T02:01:19.073Z,0.00
2019-04-30T02:02:18.924Z,0.00
2019-04-30T02:03:19.302Z,0.00
2019-04-30T02:04:19.572Z,0.00
2019-04-30T02:05:19.001Z,0.00
2019-04-30T02:06:19.663Z,0.00
2019-04-30T02:07:19.141Z,0.00
2019-04-30T02:08:19.505Z,0.00
2019-04-30T02:09:20.660Z,0.00
2019-04-30T02:10:19.061Z,0.00
2019-04-30T02:11:19.167Z,0.00
2019-04-30T02:12:21.694Z,0.00
2019-04-30T02:13:19.114Z,0.00
2019-04-30T02:14:19.130Z,0.00
2019-04-30T02:15:19.361Z,0.00
2019-04-30T02:16:21.162Z,0.00
2019-04-30T02:17:19.365Z,0.00
2019-04-30T02:18:19.588Z,0.00
2019-04-30T02:19:19.221Z,0.00
2019-04-30T02:20:19.233Z,0.00
2019-04-30T02:21:19.630Z,0.00
2019-04-30T02:22:19.267Z,0.00
2019-04-30T02:23:19.684Z,0.00
2019-04-30T02:24:19.346Z,0.00
2019-04-30T02:25:19.623Z,0.00
2019-04-30T02:26:19.336Z,0.00
2019-04-30T02:27:21.606Z,0.00
2019-04-30T02:28:19.371Z,0.00
2019-04-30T02:29:19.390Z,0.00
2019-04-30T02:30:20.805Z,0.00
2019-04-30T02:31:22.885Z,0.00
2019-04-30T02:32:20.798Z,0.00
2019-04-30T02:33:20.043Z,0.00
2019-04-30T02:34:22.068Z,0.00
2019-04-30T02:35:19.587Z,0.00
2019-04-30T02:36:19.899Z,0.00
2019-04-30T02:37:21.027Z,0.00
2019-04-30T02:38:20.313Z,0.00
2019-04-30T02:39:20.354Z,0.00
2019-04-30T02:40:20.163Z,0.00
2019-04-30T02:41:19.599Z,0.00
2019-04-30T02:42:20.348Z,0.00
2019-04-30T02:43:20.334Z,0.00
2019-04-30T02:44:19.768Z,0.00
2019-04-30T02:45:19.879Z,0.00
2019-04-30T02:46:19.694Z,0.00
2019-04-30T02:47:20.231Z,0.00
2019-04-30T02:48:19.722Z,0.00
2019-04-30T02:49:20.516Z,0.00
2019-04-30T02:50:22.459Z,0.00
2019-04-30T02:51:22.807Z,0.00
2019-04-30T02:52:19.788Z,0.00
2019-04-30T02:53:20.004Z,0.00
2019-04-30T02:54:23.693Z,0.00
2019-04-30T02:55:19.848Z,0.00
2019-04-30T02:56:20.434Z,0.00
2019-04-30T02:57:23.129Z,0.00
2019-04-30T02:58:21.028Z,0.00
2019-04-30T02:59:20.364Z,0.00
2019-04-30T03:00:20.785Z,0.00
2019-04-30T03:01:20.480Z,0.00
2019-04-30T03:02:19.981Z,0.00
2019-04-30T03:03:20.459Z,0.00
2019-04-30T03:04:20.003Z,0.00
2019-04-30T03:05:20.416Z,0.00
2019-04-30T03:06:23.609Z,0.00
2019-04-30T03:07:20.057Z,0.00
2019-04-30T03:08:20.067Z,0.00
2019-04-30T03:09:20.475Z,0.00
2019-04-30T03:10:20.213Z,0.00
2019-04-30T03:11:20.826Z,0.00
2019-04-30T03:12:20.435Z,0.00
2019-04-30T03:13:20.228Z,0.00
2019-04-30T03:14:20.460Z,0.00
2019-04-30T03:15:22.760Z,0.00
2019-04-30T03:16:20.899Z,0.00
2019-04-30T03:17:20.909Z,0.00
2019-04-30T03:18:23.144Z,0.00
2019-04-30T03:19:20.258Z,0.00
2019-04-30T03:20:34.776Z,0.00
2019-04-30T03:21:20.291Z,0.00
2019-04-30T03:22:20.486Z,0.00
2019-04-30T03:23:20.327Z,0.00
2019-04-30T03:24:20.388Z,0.00
2019-04-30T03:25:20.363Z,0.00
2019-04-30T03:26:20.380Z,0.00
2019-04-30T03:27:21.960Z,0.00
2019-04-30T03:28:20.473Z,0.00
2019-04-30T03:29:23.880Z,0.00
2019-04-30T03:30:21.751Z,0.00
2019-04-30T03:31:22.503Z,0.00
2019-04-30T03:32:22.519Z,0.00
2019-04-30T03:33:22.854Z,0.00
2019-04-30T03:34:25.700Z,0.00
2019-04-30T03:35:22.845Z,0.00
2019-04-30T03:36:21.969Z,0.00
2019-04-30T03:37:20.573Z,0.00
2019-04-30T03:38:20.606Z,0.00
2019-04-30T03:39:20.606Z,0.00
2019-04-30T03:40:20.625Z,0.00
2019-04-30T03:41:20.640Z,0.00
2019-04-30T03:42:20.661Z,0.00
2019-04-30T03:43:20.677Z,0.00
2019-04-30T03:44:25.520Z,0.00
2019-04-30T03:45:20.712Z,0.00
2019-04-30T03:46:20.723Z,0.00
2019-04-30T03:47:20.755Z,0.00
2019-04-30T03:48:20.765Z,0.00
2019-04-30T03:49:20.779Z,0.00
2019-04-30T03:50:20.796Z,0.00
2019-04-30T03:51:20.813Z,0.00
2019-04-30T03:52:20.829Z,0.00
2019-04-30T03:53:20.850Z,0.00
2019-04-30T03:54:20.864Z,0.00
2019-04-30T03:55:24.706Z,0.00
2019-04-30T03:56:22.913Z,0.00
2019-04-30T03:57:20.916Z,0.00
2019-04-30T03:58:21.510Z,0.00
2019-04-30T03:59:20.963Z,0.00
2019-04-30T04:00:20.965Z,0.00
2019-04-30T04:01:20.985Z,0.00
2019-04-30T04:02:21.077Z,0.00
2019-04-30T04:03:21.020Z,0.00
2019-04-30T04:04:21.034Z,0.00
2019-04-30T04:05:21.067Z,0.00
2019-04-30T04:06:21.489Z,0.00
2019-04-30T04:07:21.089Z,5.63
2019-04-30T04:08:21.106Z,5.63
2019-04-30T04:09:22.363Z,5.63
2019-04-30T04:10:21.141Z,5.63
2019-04-30T04:11:21.153Z,5.63
2019-04-30T04:12:21.175Z,5.63
2019-04-30T04:13:21.191Z,5.63
2019-04-30T04:14:21.206Z,5.63
2019-04-30T04:15:21.223Z,5.63
2019-04-30T04:16:21.238Z,5.63
2019-04-30T04:17:21.259Z,5.63
2019-04-30T04:18:21.271Z,5.63
2019-04-30T04:19:21.289Z,11.25
2019-04-30T04:20:21.308Z,11.25
2019-04-30T04:21:21.328Z,11.25
2019-04-30T04:22:21.340Z,11.25
2019-04-30T04:23:21.364Z,11.25
2019-04-30T04:25:21.395Z,11.25
2019-04-30T04:26:21.415Z,11.25
2019-04-30T04:27:21.433Z,16.88
2019-04-30T04:28:21.444Z,16.88
2019-04-30T04:29:21.458Z,16.88
2019-04-30T04:30:21.485Z,16.88
2019-04-30T04:31:21.497Z,16.88
2019-04-30T04:32:24.299Z,16.88
2019-04-30T04:33:21.534Z,16.88
2019-04-30T04:34:21.544Z,16.88
2019-04-30T04:35:21.560Z,16.88
2019-04-30T04:36:21.581Z,22.50
2019-04-30T04:37:21.602Z,22.50
2019-04-30T04:38:21.618Z,22.50
2019-04-30T04:39:21.637Z,22.50
2019-04-30T04:40:21.654Z,22.50
2019-04-30T04:41:21.668Z,22.50
2019-04-30T04:42:21.682Z,22.50
2019-04-30T04:43:21.696Z,22.50
2019-04-30T04:44:21.732Z,22.50
2019-04-30T04:45:21.733Z,22.50
2019-04-30T04:46:21.771Z,22.50
2019-04-30T04:47:21.767Z,28.13
2019-04-30T04:48:23.119Z,28.13
2019-04-30T04:49:21.800Z,28.13
2019-04-30T04:50:21.822Z,28.13
2019-04-30T04:51:36.759Z,28.13
2019-04-30T04:52:22.329Z,28.13
2019-04-30T04:53:21.883Z,28.13
2019-04-30T04:54:21.893Z,28.13
2019-04-30T04:55:22.323Z,28.13
2019-04-30T04:56:21.925Z,28.13
2019-04-30T04:57:22.965Z,28.13
2019-04-30T04:58:21.993Z,28.13
2019-04-30T04:59:21.968Z,28.13
2019-04-30T05:00:21.986Z,28.13
2019-04-30T05:01:22.004Z,28.13
2019-04-30T05:02:22.021Z,28.13
2019-04-30T05:03:22.039Z,33.75
2019-04-30T05:04:22.051Z,33.75
2019-04-30T05:05:22.068Z,33.75
2019-04-30T05:06:22.411Z,33.75
2019-04-30T05:07:22.104Z,39.38
2019-04-30T05:08:22.127Z,39.38
2019-04-30T05:09:22.144Z,39.38
2019-04-30T05:10:22.158Z,39.38
2019-04-30T05:11:22.179Z,39.38
2019-04-30T05:12:22.187Z,39.38
2019-04-30T05:13:22.210Z,45.00
2019-04-30T05:14:22.227Z,50.63
2019-04-30T05:15:22.240Z,45.00
2019-04-30T05:16:22.259Z,45.00
2019-04-30T05:17:22.281Z,45.00
2019-04-30T05:18:22.823Z,45.00
2019-04-30T05:19:22.324Z,45.00
2019-04-30T05:20:22.331Z,50.63
2019-04-30T05:21:22.342Z,50.63
2019-04-30T05:22:22.359Z,50.63
2019-04-30T05:23:22.379Z,50.63
2019-04-30T05:24:22.402Z,50.63
2019-04-30T05:25:22.416Z,50.63
2019-04-30T05:26:22.899Z,50.63
2019-04-30T05:27:22.451Z,50.63
2019-04-30T05:28:22.465Z,50.63
2019-04-30T05:29:22.483Z,50.63
2019-04-30T05:30:22.498Z,56.25
2019-04-30T05:31:22.519Z,56.25
2019-04-30T05:32:22.536Z,61.88
2019-04-30T05:33:22.557Z,67.50
2019-04-30T05:34:22.581Z,67.50
2019-04-30T05:35:22.589Z,67.50
2019-04-30T05:36:22.605Z,61.88
2019-04-30T05:37:22.721Z,61.88
2019-04-30T05:38:22.643Z,61.88
2019-04-30T05:39:22.654Z,67.50
2019-04-30T05:40:22.673Z,61.88
2019-04-30T05:41:22.690Z,61.88
2019-04-30T05:42:22.710Z,67.50
2019-04-30T05:43:22.733Z,67.50
2019-04-30T05:44:22.741Z,67.50
2019-04-30T05:45:22.760Z,61.88
2019-04-30T05:46:22.775Z,61.88
2019-04-30T05:47:22.801Z,67.50
2019-04-30T05:48:22.810Z,73.13
2019-04-30T05:49:22.835Z,73.13
2019-04-30T05:50:22.853Z,73.13
2019-04-30T05:51:22.870Z,73.13
2019-04-30T05:52:22.880Z,73.13
2019-04-30T05:53:22.897Z,73.13
2019-04-30T05:54:22.923Z,73.13
2019-04-30T05:55:22.943Z,78.75
2019-04-30T05:56:22.955Z,78.75
2019-04-30T05:57:22.968Z,78.75
2019-04-30T05:58:22.990Z,78.75
2019-04-30T05:59:23.011Z,78.75
2019-04-30T06:00:23.020Z,78.75
2019-04-30T06:01:24.322Z,90.00
2019-04-30T06:02:23.063Z,90.00
2019-04-30T06:03:29.702Z,90.00
2019-04-30T06:04:23.100Z,84.38
2019-04-30T06:05:23.109Z,84.38
2019-04-30T06:06:23.129Z,90.00
2019-04-30T06:07:23.146Z,90.00
2019-04-30T06:08:23.165Z,90.00
2019-04-30T06:09:33.583Z,95.63
2019-04-30T06:10:23.208Z,101.25
2019-04-30T06:11:23.217Z,101.25
2019-04-30T06:12:23.240Z,95.63
2019-04-30T06:13:23.257Z,90.00
2019-04-30T06:14:23.268Z,84.38
2019-04-30T06:15:23.285Z,84.38
2019-04-30T06:16:23.310Z,90.00
2019-04-30T06:17:23.327Z,90.00
2019-04-30T06:18:23.342Z,95.63
2019-04-30T06:19:23.361Z,95.63
2019-04-30T06:20:23.382Z,95.63
2019-04-30T06:21:23.391Z,95.63
2019-04-30T06:22:23.415Z,95.63
2019-04-30T06:23:23.430Z,95.63
2019-04-30T06:24:23.451Z,84.38
2019-04-30T06:25:31.565Z,78.75
2019-04-30T06:26:23.485Z,84.38
2019-04-30T06:27:23.503Z,73.13
2019-04-30T06:28:23.516Z,84.38
2019-04-30T06:29:23.536Z,95.63
2019-04-30T06:30:23.555Z,95.63
2019-04-30T06:31:32.246Z,95.63
2019-04-30T06:32:23.591Z,95.63
2019-04-30T06:33:23.609Z,90.00
2019-04-30T06:34:23.623Z,95.63
2019-04-30T06:35:23.643Z,90.00
2019-04-30T06:36:23.662Z,84.38
2019-04-30T06:37:23.677Z,90.00
2019-04-30T06:38:23.694Z,95.63
2019-04-30T06:39:23.713Z,95.63
2019-04-30T06:40:23.732Z,90.00
2019-04-30T06:41:23.751Z,95.63
2019-04-30T06:42:23.772Z,106.88
2019-04-30T06:43:23.785Z,101.25
2019-04-30T06:44:34.982Z,101.25
2019-04-30T06:45:23.825Z,95.63
2019-04-30T06:46:23.846Z,90.00
2019-04-30T06:47:32.751Z,84.38
2019-04-30T06:48:23.875Z,84.38
2019-04-30T06:49:23.890Z,84.38
2019-04-30T06:50:23.907Z,90.00
2019-04-30T06:51:23.926Z,90.00
2019-04-30T06:52:23.942Z,95.63
2019-04-30T06:53:23.964Z,101.25
2019-04-30T06:54:23.977Z,95.63
2019-04-30T06:55:23.997Z,95.63
2019-04-30T06:56:24.012Z,90.00
2019-04-30T06:57:24.032Z,90.00
2019-04-30T06:58:24.052Z,95.63
2019-04-30T06:59:24.065Z,106.88
2019-04-30T07:00:32.957Z,118.13
2019-04-30T07:01:24.099Z,118.13
2019-04-30T07:02:24.117Z,112.50
2019-04-30T07:03:24.135Z,112.50
2019-04-30T07:04:24.159Z,106.88
2019-04-30T07:05:24.177Z,106.88
2019-04-30T07:06:29.782Z,106.88
2019-04-30T07:07:35.795Z,106.88
2019-04-30T07:08:36.075Z,112.50
2019-04-30T07:09:26.728Z,118.13
2019-04-30T07:10:24.261Z,123.75
2019-04-30T07:11:24.279Z,112.50
2019-04-30T07:12:27.888Z,106.88
2019-04-30T07:13:24.322Z,106.88
2019-04-30T07:14:24.335Z,112.50
2019-04-30T07:15:24.357Z,112.50
2019-04-30T07:16:24.365Z,112.50
2019-04-30T07:17:24.390Z,118.13
2019-04-30T07:18:24.405Z,123.75
2019-04-30T07:19:32.935Z,123.75
2019-04-30T07:20:24.444Z,118.13
2019-04-30T07:21:24.712Z,118.13
2019-04-30T07:22:39.092Z,123.75
2019-04-30T07:23:24.496Z,118.13
2019-04-30T07:24:24.510Z,112.50
2019-04-30T07:25:24.525Z,118.13
2019-04-30T07:26:24.851Z,123.75
2019-04-30T07:27:24.562Z,129.38
2019-04-30T07:28:42.713Z,140.63
2019-04-30T07:29:24.602Z,140.63
2019-04-30T07:30:24.624Z,129.38
2019-04-30T07:31:24.640Z,135.00
2019-04-30T07:32:24.658Z,140.63
2019-04-30T07:33:24.671Z,135.00
2019-04-30T07:34:24.692Z,129.38
2019-04-30T07:35:24.709Z,129.38
2019-04-30T07:36:42.512Z,135.00
2019-04-30T07:37:24.922Z,135.00
2019-04-30T07:38:24.767Z,118.13
2019-04-30T07:39:31.708Z,118.13
2019-04-30T07:40:24.798Z,106.88
2019-04-30T07:41:24.821Z,95.63
2019-04-30T07:42:24.839Z,90.00
2019-04-30T07:43:24.855Z,90.00
2019-04-30T07:45:25.762Z,106.88
2019-04-30T07:46:24.933Z,140.63
2019-04-30T07:47:24.927Z,129.38
2019-04-30T07:48:26.581Z,140.63
2019-04-30T07:49:24.964Z,157.50
2019-04-30T07:50:25.560Z,180.00
2019-04-30T07:51:25.479Z,202.50
2019-04-30T07:52:25.875Z,202.50
2019-04-30T07:53:25.036Z,196.88
2019-04-30T07:54:25.054Z,196.88
2019-04-30T07:55:25.074Z,196.88
2019-04-30T07:56:28.399Z,191.25
2019-04-30T07:57:25.113Z,185.63
2019-04-30T07:58:25.127Z,135.00
2019-04-30T07:59:25.150Z,146.25
2019-04-30T08:00:25.169Z,112.50
2019-04-30T08:01:25.306Z,112.50
2019-04-30T08:02:25.203Z,146.25
2019-04-30T08:03:25.602Z,112.50
2019-04-30T08:04:25.238Z,112.50
2019-04-30T08:05:25.266Z,112.50
2019-04-30T08:06:25.308Z,135.00
2019-04-30T08:07:25.350Z,146.25
2019-04-30T08:08:25.973Z,146.25
2019-04-30T08:09:25.334Z,146.25
2019-04-30T08:09:35.037Z,95.63
2019-04-30T08:10:25.757Z,129.38
2019-04-30T08:11:26.424Z,140.63
2019-04-30T08:12:30.950Z,112.50
2019-04-30T08:13:25.996Z,146.25
2019-04-30T08:14:25.425Z,146.25
2019-04-30T08:15:25.452Z,146.25
2019-04-30T08:16:25.466Z,146.25
2019-04-30T08:17:25.481Z,140.63
2019-04-30T08:18:25.502Z,140.63
2019-04-30T08:19:25.529Z,140.63
2019-04-30T08:20:25.538Z,146.25
2019-04-30T08:21:25.561Z,146.25
2019-04-30T08:22:25.575Z,146.25
2019-04-30T08:23:34.843Z,146.25
2019-04-30T08:24:25.618Z,140.63
2019-04-30T08:25:25.634Z,140.63
2019-04-30T08:26:25.657Z,140.63
2019-04-30T08:27:25.673Z,140.63
2019-04-30T08:28:25.694Z,140.63
2019-04-30T08:29:25.710Z,140.63
2019-04-30T08:30:26.910Z,146.25
2019-04-30T08:31:25.750Z,146.25
2019-04-30T08:32:25.766Z,146.25
2019-04-30T08:33:25.783Z,151.88
2019-04-30T08:34:25.810Z,151.88
2019-04-30T08:35:25.825Z,146.25
2019-04-30T08:36:25.848Z,151.88
2019-04-30T08:37:25.865Z,151.88
2019-04-30T08:38:25.885Z,146.25
2019-04-30T08:39:25.901Z,140.63
2019-04-30T08:40:25.918Z,157.50
2019-04-30T08:41:25.936Z,157.50
2019-04-30T08:42:31.737Z,163.13
2019-04-30T08:43:25.981Z,157.50
2019-04-30T08:44:25.999Z,151.88
2019-04-30T08:45:26.015Z,163.13
2019-04-30T08:46:26.033Z,157.50
2019-04-30T08:47:26.057Z,163.13
2019-04-30T08:48:41.669Z,163.13
2019-04-30T08:49:26.381Z,163.13
2019-04-30T08:50:26.196Z,146.25
2019-04-30T08:51:26.146Z,146.25
2019-04-30T08:52:26.163Z,135.00
2019-04-30T08:53:30.094Z,118.13
2019-04-30T08:54:26.183Z,146.25
2019-04-30T08:55:26.203Z,140.63
2019-04-30T08:56:26.227Z,135.00
2019-04-30T08:57:26.242Z,129.38
2019-04-30T08:58:26.259Z,101.25
2019-04-30T08:59:26.280Z,95.63
2019-04-30T09:00:26.304Z,140.63
2019-04-30T09:01:26.318Z,146.25
2019-04-30T09:02:26.337Z,135.00
2019-04-30T09:03:26.363Z,140.63
2019-04-30T09:04:26.380Z,140.63
2019-04-30T09:05:28.671Z,140.63
2019-04-30T09:06:28.701Z,146.25
2019-04-30T09:07:26.461Z,146.25
2019-04-30T09:08:26.460Z,151.88
2019-04-30T09:09:26.490Z,146.25
2019-04-30T09:10:26.499Z,146.25
2019-04-30T09:11:32.214Z,151.88
2019-04-30T09:12:26.529Z,151.88
2019-04-30T09:13:28.531Z,146.25
2019-04-30T09:14:26.576Z,151.88
2019-04-30T09:15:26.594Z,146.25
2019-04-30T09:16:26.684Z,151.88
2019-04-30T09:17:26.626Z,146.25
2019-04-30T09:18:26.643Z,146.25
2019-04-30T09:19:26.664Z,146.25
2019-04-30T09:20:26.688Z,146.25
2019-04-30T09:21:26.703Z,151.88
2019-04-30T09:22:26.721Z,146.25
2019-04-30T09:23:34.323Z,146.25
2019-04-30T09:24:26.760Z,146.25
2019-04-30T09:25:28.506Z,140.63
2019-04-30T09:26:28.905Z,146.25
2019-04-30T09:27:26.821Z,151.88
2019-04-30T09:28:26.838Z,140.63
2019-04-30T09:29:26.863Z,140.63
2019-04-30T09:30:26.877Z,140.63
2019-04-30T09:31:26.894Z,146.25
2019-04-30T09:32:28.977Z,146.25
2019-04-30T09:33:26.937Z,146.25
2019-04-30T09:34:28.898Z,146.25
2019-04-30T09:35:29.524Z,140.63
2019-04-30T09:36:29.070Z,135.00
2019-04-30T09:37:27.018Z,140.63
2019-04-30T09:38:28.909Z,140.63
2019-04-30T09:39:27.053Z,140.63
2019-04-30T09:40:30.115Z,135.00
2019-04-30T09:41:28.776Z,135.00
2019-04-30T09:42:29.475Z,140.63
2019-04-30T09:43:28.629Z,140.63
2019-04-30T09:44:30.511Z,140.63
2019-04-30T09:45:28.565Z,135.00
2019-04-30T09:46:29.702Z,140.63
2019-04-30T09:47:27.228Z,140.63
2019-04-30T09:48:30.309Z,140.63
2019-04-30T09:49:29.280Z,140.63
2019-04-30T09:50:29.002Z,135.00
2019-04-30T09:51:29.913Z,140.63
2019-04-30T09:52:30.094Z,140.63
2019-04-30T09:53:29.390Z,135.00
2019-04-30T09:54:29.011Z,140.63
2019-04-30T09:55:29.087Z,140.63
2019-04-30T09:56:29.350Z,140.63
2019-04-30T09:57:29.028Z,140.63
2019-04-30T09:58:27.431Z,135.00
2019-04-30T09:59:29.198Z,135.00
2019-04-30T10:00:29.306Z,140.63
2019-04-30T10:01:27.483Z,135.00
2019-04-30T10:02:29.077Z,135.00
2019-04-30T10:03:29.713Z,135.00
2019-04-30T10:04:29.787Z,140.63
2019-04-30T10:05:29.304Z,140.63
2019-04-30T10:06:38.928Z,140.63
2019-04-30T10:07:29.264Z,140.63
2019-04-30T10:08:30.328Z,140.63
2019-04-30T10:09:29.373Z,140.63
2019-04-30T10:10:28.906Z,140.63
2019-04-30T10:11:27.683Z,135.00
2019-04-30T10:12:29.404Z,135.00
2019-04-30T10:13:27.724Z,135.00
2019-04-30T10:14:27.748Z,135.00
2019-04-30T10:15:28.925Z,129.38
2019-04-30T10:16:29.517Z,129.38
2019-04-30T10:17:27.807Z,135.00
2019-04-30T10:18:27.824Z,135.00
2019-04-30T10:19:29.233Z,135.00
2019-04-30T10:20:27.865Z,135.00
2019-04-30T10:21:29.010Z,135.00
2019-04-30T10:22:27.907Z,140.63
2019-04-30T10:23:27.928Z,129.38
2019-04-30T10:24:29.489Z,129.38
2019-04-30T10:25:27.966Z,135.00
2019-04-30T10:26:27.982Z,135.00
2019-04-30T10:27:29.381Z,135.00
2019-04-30T10:28:28.049Z,135.00
2019-04-30T10:29:28.046Z,129.38
2019-04-30T10:30:29.189Z,135.00
2019-04-30T10:31:29.332Z,135.00
2019-04-30T10:32:29.993Z,129.38
2019-04-30T10:33:28.680Z,129.38
2019-04-30T10:34:28.149Z,129.38
2019-04-30T10:35:28.630Z,129.38
2019-04-30T10:36:29.525Z,129.38
2019-04-30T10:37:28.745Z,123.75
2019-04-30T10:38:29.360Z,123.75
2019-04-30T10:39:29.716Z,129.38
2019-04-30T10:40:28.745Z,129.38
2019-04-30T10:41:28.873Z,129.38
2019-04-30T10:42:28.859Z,129.38
2019-04-30T10:43:29.069Z,129.38
2019-04-30T10:44:29.832Z,135.00
2019-04-30T10:45:28.831Z,129.38
2019-04-30T10:46:28.383Z,135.00
2019-04-30T10:47:29.582Z,123.75
2019-04-30T10:48:28.426Z,123.75
2019-04-30T10:49:29.176Z,123.75
2019-04-30T10:50:28.472Z,129.38
2019-04-30T10:51:28.879Z,129.38
2019-04-30T10:52:29.245Z,123.75
2019-04-30T10:53:28.525Z,123.75
2019-04-30T10:54:29.141Z,129.38
2019-04-30T10:55:28.723Z,129.38
2019-04-30T10:56:29.134Z,129.38
2019-04-30T10:57:28.628Z,129.38
2019-04-30T10:58:28.642Z,129.38
2019-04-30T10:59:28.653Z,129.38
2019-04-30T11:00:28.716Z,123.75
2019-04-30T11:01:29.212Z,123.75
2019-04-30T11:02:31.141Z,123.75
2019-04-30T11:03:29.124Z,129.38
2019-04-30T11:04:28.755Z,123.75
2019-04-30T11:05:29.294Z,123.75
2019-04-30T11:06:28.791Z,123.75
2019-04-30T11:07:28.985Z,123.75
2019-04-30T11:08:28.832Z,123.75
2019-04-30T11:09:29.293Z,123.75
2019-04-30T11:10:28.874Z,123.75
2019-04-30T11:11:30.610Z,123.75
2019-04-30T11:12:29.311Z,129.38
2019-04-30T11:13:28.940Z,129.38
2019-04-30T11:14:28.956Z,129.38
2019-04-30T11:15:29.318Z,123.75
2019-04-30T11:16:29.743Z,129.38
2019-04-30T11:17:30.015Z,123.75
2019-04-30T11:18:29.228Z,123.75
2019-04-30T11:19:29.530Z,123.75
2019-04-30T11:20:29.851Z,129.38
2019-04-30T11:21:29.610Z,123.75
2019-04-30T11:22:29.272Z,123.75
2019-04-30T11:23:29.728Z,123.75
2019-04-30T11:24:36.618Z,129.38
2019-04-30T11:25:31.354Z,123.75
2019-04-30T11:26:31.595Z,123.75
2019-04-30T11:27:30.664Z,129.38
2019-04-30T11:28:29.508Z,123.75
2019-04-30T11:29:30.965Z,123.75
2019-04-30T11:30:29.894Z,129.38
2019-04-30T11:31:29.475Z,129.38
2019-04-30T11:32:29.557Z,129.38
2019-04-30T11:33:29.359Z,135.00
2019-04-30T11:34:29.373Z,140.63
2019-04-30T11:35:29.769Z,146.25
2019-04-30T11:36:29.425Z,140.63
2019-04-30T11:37:29.439Z,146.25
2019-04-30T11:38:29.993Z,140.63
2019-04-30T11:39:29.855Z,146.25
2019-04-30T11:40:34.034Z,135.00
2019-04-30T11:41:33.039Z,129.38
2019-04-30T11:42:32.094Z,135.00
2019-04-30T11:43:29.570Z,123.75
2019-04-30T11:44:31.467Z,123.75
2019-04-30T11:45:29.605Z,118.13
2019-04-30T11:46:29.628Z,118.13
2019-04-30T11:47:29.654Z,118.13
2019-04-30T11:48:29.674Z,123.75
2019-04-30T11:49:29.688Z,118.13
2019-04-30T11:50:30.158Z,123.75
2019-04-30T11:51:29.733Z,118.13
2019-04-30T11:52:29.751Z,123.75
2019-04-30T11:53:30.709Z,123.75
2019-04-30T11:54:29.978Z,118.13
2019-04-30T11:55:29.817Z,118.13
2019-04-30T11:56:29.840Z,123.75
2019-04-30T11:57:29.984Z,118.13
2019-04-30T11:58:30.563Z,118.13
2019-04-30T11:59:29.919Z,123.75
2019-04-30T12:00:29.932Z,118.13
2019-04-30T12:01:29.949Z,112.50
2019-04-30T12:02:29.967Z,112.50
2019-04-30T12:03:30.392Z,118.13
2019-04-30T12:04:30.068Z,112.50
2019-04-30T12:05:30.037Z,112.50
2019-04-30T12:06:30.055Z,118.13
2019-04-30T12:07:30.067Z,118.13
2019-04-30T12:08:30.091Z,118.13
2019-04-30T12:09:30.116Z,118.13
2019-04-30T12:10:30.138Z,118.13
2019-04-30T12:11:30.153Z,118.13
2019-04-30T12:12:30.172Z,118.13
2019-04-30T12:13:30.199Z,118.13
2019-04-30T12:14:30.216Z,112.50
2019-04-30T12:15:30.238Z,112.50
2019-04-30T12:16:30.312Z,112.50
2019-04-30T12:17:30.380Z,112.50
2019-04-30T12:18:30.298Z,112.50
2019-04-30T12:19:30.328Z,112.50
2019-04-30T12:20:30.347Z,112.50
2019-04-30T12:21:30.368Z,112.50
2019-04-30T12:22:30.387Z,112.50
2019-04-30T12:23:30.406Z,118.13
2019-04-30T12:24:30.494Z,118.13
2019-04-30T12:25:30.494Z,118.13
2019-04-30T12:26:30.468Z,118.13
2019-04-30T12:27:30.495Z,118.13
2019-04-30T12:28:30.512Z,118.13
2019-04-30T12:29:30.532Z,118.13
2019-04-30T12:30:30.552Z,118.13
2019-04-30T12:31:30.575Z,118.13
2019-04-30T12:32:30.599Z,118.13
2019-04-30T12:33:30.618Z,118.13
2019-04-30T12:34:30.640Z,118.13
2019-04-30T12:35:30.665Z,118.13
2019-04-30T12:36:30.681Z,118.13
2019-04-30T12:37:30.698Z,106.88
2019-04-30T12:38:30.724Z,95.63
2019-04-30T12:39:30.747Z,90.00
2019-04-30T12:40:32.401Z,118.13
2019-04-30T12:41:30.785Z,118.13
2019-04-30T12:42:30.813Z,118.13
2019-04-30T12:43:30.837Z,123.75
2019-04-30T12:44:30.854Z,123.75
2019-04-30T12:45:30.869Z,123.75
2019-04-30T12:46:30.894Z,129.38
2019-04-30T12:47:30.911Z,123.75
2019-04-30T12:48:30.935Z,123.75
2019-04-30T12:49:30.963Z,123.75
2019-04-30T12:50:30.982Z,129.38
2019-04-30T12:51:31.002Z,123.75